createdAt,value
2019-05-29T00:00:09.892Z,74.66
2019-05-29T00:01:14.058Z,74.77
2019-05-29T00:02:10.086Z,74.70
2019-05-29T00:03:08.450Z,74.80
2019-05-29T00:04:08.442Z,75.21
2019-05-29T00:05:08.434Z,75.32
2019-05-29T00:06:08.416Z,75.35
2019-05-29T00:07:08.412Z,75.32
2019-05-29T00:08:08.404Z,75.21
2019-05-29T00:09:08.386Z,75.56
2019-05-29T00:10:08.961Z,75.45
2019-05-29T00:11:08.364Z,75.35
2019-05-29T00:12:11.358Z,75.45
2019-05-29T00:13:10.249Z,75.56
2019-05-29T00:14:20.742Z,76.00
2019-05-29T00:15:10.351Z,76.17
2019-05-29T00:16:08.372Z,76.21
2019-05-29T00:17:08.415Z,76.10
2019-05-29T00:18:08.369Z,76.42
2019-05-29T00:19:08.765Z,76.31
2019-05-29T00:20:08.371Z,76.42
2019-05-29T00:21:08.601Z,76.55
2019-05-29T00:22:08.285Z,76.76
2019-05-29T00:23:08.496Z,76.76
2019-05-29T00:24:08.351Z,77.17
2019-05-29T00:25:08.555Z,76.86
2019-05-29T00:26:08.341Z,77.27
2019-05-29T00:27:12.554Z,77.78
2019-05-29T00:28:09.176Z,77.48
2019-05-29T00:29:08.166Z,77.27
2019-05-29T00:30:08.802Z,77.48
2019-05-29T00:31:08.145Z,77.92
2019-05-29T00:32:08.884Z,78.33
2019-05-29T00:33:08.124Z,78.44
2019-05-29T00:34:08.946Z,78.92
2019-05-29T00:35:08.359Z,78.40
2019-05-29T00:36:08.255Z,78.33
2019-05-29T00:37:08.511Z,77.48
2019-05-29T00:38:08.462Z,76.97
2019-05-29T00:39:08.630Z,76.86
2019-05-29T00:40:08.918Z,76.31
2019-05-29T00:41:08.801Z,75.59
2019-05-29T00:42:08.942Z,75.59
2019-05-29T00:43:09.094Z,75.18
2019-05-29T00:44:09.067Z,74.94
2019-05-29T00:45:09.334Z,75.56
2019-05-29T00:46:07.984Z,74.22
2019-05-29T00:47:07.984Z,75.35
2019-05-29T00:48:07.968Z,74.74
2019-05-29T00:49:07.951Z,74.94
2019-05-29T00:50:08.121Z,73.88
2019-05-29T00:51:08.907Z,73.57
2019-05-29T00:52:08.122Z,74.29
2019-05-29T00:53:08.124Z,73.78
2019-05-29T00:54:08.218Z,72.85
2019-05-29T00:55:08.696Z,73.57
2019-05-29T00:56:08.520Z,72.72
2019-05-29T00:57:08.724Z,72.41
2019-05-29T00:58:08.784Z,72.61
2019-05-29T00:59:08.928Z,72.55
2019-05-29T01:00:08.953Z,73.44
2019-05-29T01:01:07.823Z,74.05
2019-05-29T01:02:07.811Z,74.26
2019-05-29T01:03:07.817Z,73.88
2019-05-29T01:04:07.789Z,74.57
2019-05-29T01:05:07.780Z,74.80
2019-05-29T01:06:07.767Z,74.87
2019-05-29T01:07:07.760Z,74.91
2019-05-29T01:08:07.756Z,75.01
2019-05-29T01:09:07.734Z,74.91
2019-05-29T01:10:07.724Z,75.42
2019-05-29T01:11:07.714Z,75.52
2019-05-29T01:12:07.709Z,75.11
2019-05-29T01:13:07.700Z,75.11
2019-05-29T01:14:07.680Z,75.01
2019-05-29T01:15:07.672Z,75.42
2019-05-29T01:16:07.661Z,75.32
2019-05-29T01:17:07.650Z,75.25
2019-05-29T01:18:07.648Z,74.63
2019-05-29T01:19:07.628Z,74.94
2019-05-29T01:20:07.616Z,74.12
2019-05-29T01:21:07.606Z,73.61
2019-05-29T01:22:07.595Z,73.50
2019-05-29T01:23:07.591Z,73.78
2019-05-29T01:24:07.576Z,73.06
2019-05-29T01:25:07.563Z,73.68
2019-05-29T01:26:07.553Z,73.57
2019-05-29T01:27:07.540Z,73.78
2019-05-29T01:28:07.542Z,73.78
2019-05-29T01:29:07.523Z,72.75
2019-05-29T01:30:07.509Z,73.57
2019-05-29T01:31:07.497Z,73.78
2019-05-29T01:32:07.488Z,73.88
2019-05-29T01:33:07.483Z,74.19
2019-05-29T01:34:07.463Z,74.40
2019-05-29T01:35:07.454Z,73.50
2019-05-29T01:36:07.446Z,73.81
2019-05-29T01:37:07.431Z,74.32
2019-05-29T01:38:07.430Z,73.50
2019-05-29T01:39:07.410Z,73.71
2019-05-29T01:40:19.242Z,73.91
2019-05-29T01:41:08.386Z,73.81
2019-05-29T01:42:07.379Z,73.19
2019-05-29T01:43:07.375Z,72.38
2019-05-29T01:44:07.356Z,72.38
2019-05-29T01:45:08.639Z,72.48
2019-05-29T01:46:07.336Z,73.10
2019-05-29T01:47:07.323Z,73.61
2019-05-29T01:48:07.326Z,73.10
2019-05-29T01:49:07.301Z,73.71
2019-05-29T01:50:07.291Z,73.81
2019-05-29T01:51:07.281Z,74.32
2019-05-29T01:52:07.271Z,74.02
2019-05-29T01:53:07.274Z,74.63
2019-05-29T01:54:07.249Z,75.04
2019-05-29T01:55:07.238Z,74.98
2019-05-29T01:56:07.227Z,74.98
2019-05-29T01:57:07.218Z,74.77
2019-05-29T01:58:07.214Z,75.18
2019-05-29T01:59:07.196Z,74.98
2019-05-29T02:00:07.184Z,74.77
2019-05-29T02:01:07.186Z,74.67
2019-05-29T02:02:07.162Z,74.67
2019-05-29T02:03:07.160Z,74.87
2019-05-29T02:04:07.144Z,74.98
2019-05-29T02:05:07.136Z,74.87
2019-05-29T02:06:07.119Z,74.87
2019-05-29T02:07:07.107Z,74.98
2019-05-29T02:08:07.119Z,75.38
2019-05-29T02:09:07.089Z,75.08
2019-05-29T02:10:07.077Z,74.87
2019-05-29T02:11:07.065Z,74.46
2019-05-29T02:12:07.055Z,74.77
2019-05-29T02:13:07.047Z,74.26
2019-05-29T02:14:07.041Z,74.36
2019-05-29T02:15:22.682Z,74.15
2019-05-29T02:16:08.010Z,74.36
2019-05-29T02:17:07.001Z,74.46
2019-05-29T02:18:06.996Z,74.36
2019-05-29T02:19:06.986Z,73.95
2019-05-29T02:20:06.966Z,74.12
2019-05-29T02:21:06.956Z,74.46
2019-05-29T02:22:06.947Z,74.05
2019-05-29T02:23:06.946Z,73.71
2019-05-29T02:24:06.933Z,73.81
2019-05-29T02:25:06.915Z,73.61
2019-05-29T02:26:06.901Z,74.43
2019-05-29T02:27:06.892Z,74.02
2019-05-29T02:28:06.884Z,73.81
2019-05-29T02:29:06.882Z,73.61
2019-05-29T02:30:06.860Z,74.32
2019-05-29T02:31:06.851Z,74.84
2019-05-29T02:32:06.838Z,73.91
2019-05-29T02:33:06.830Z,74.12
2019-05-29T02:34:07.603Z,74.63
2019-05-29T02:35:06.812Z,74.84
2019-05-29T02:36:06.797Z,74.74
2019-05-29T02:37:06.785Z,74.84
2019-05-29T02:38:06.785Z,74.94
2019-05-29T02:39:06.771Z,74.74
2019-05-29T02:40:06.754Z,74.74
2019-05-29T02:41:06.742Z,74.63
2019-05-29T02:42:06.732Z,74.29
2019-05-29T02:43:06.722Z,74.80
2019-05-29T02:44:06.719Z,74.80
2019-05-29T02:45:06.716Z,75.11
2019-05-29T02:46:06.687Z,74.70
2019-05-29T02:47:06.678Z,74.91
2019-05-29T02:48:06.668Z,74.91
2019-05-29T02:49:06.667Z,75.01
2019-05-29T02:50:06.643Z,74.91
2019-05-29T02:51:06.634Z,75.21
2019-05-29T02:52:06.623Z,75.01
2019-05-29T02:53:06.614Z,75.32
2019-05-29T02:54:06.608Z,75.45
2019-05-29T02:55:06.596Z,75.73
2019-05-29T02:56:06.579Z,75.42
2019-05-29T02:57:06.578Z,75.52
2019-05-29T02:58:06.566Z,75.25
2019-05-29T02:59:06.555Z,75.21
2019-05-29T03:00:06.544Z,75.73
2019-05-29T03:01:06.525Z,75.73
2019-05-29T03:02:06.518Z,74.91
2019-05-29T03:03:06.504Z,75.52
2019-05-29T03:04:06.501Z,75.83
2019-05-29T03:05:06.487Z,75.52
2019-05-29T03:06:06.482Z,75.42
2019-05-29T03:07:06.462Z,75.52
2019-05-29T03:08:06.447Z,75.52
2019-05-29T03:09:06.459Z,75.93
2019-05-29T03:10:06.428Z,75.42
2019-05-29T03:11:06.419Z,75.69
2019-05-29T03:12:06.407Z,75.69
2019-05-29T03:13:06.403Z,75.28
2019-05-29T03:14:06.394Z,75.32
2019-05-29T03:15:06.374Z,75.59
2019-05-29T03:16:11.526Z,75.08
2019-05-29T03:17:07.351Z,75.28
2019-05-29T03:18:06.343Z,75.49
2019-05-29T03:19:06.344Z,75.49
2019-05-29T03:20:06.336Z,75.42
2019-05-29T03:21:06.311Z,75.69
2019-05-29T03:22:06.299Z,75.59
2019-05-29T03:23:06.286Z,75.59
2019-05-29T03:24:06.302Z,75.38
2019-05-29T03:25:06.266Z,75.59
2019-05-29T03:26:06.260Z,75.28
2019-05-29T03:27:06.259Z,75.69
2019-05-29T03:28:06.234Z,75.49
2019-05-29T03:29:06.221Z,75.69
2019-05-29T03:30:06.257Z,75.69
2019-05-29T03:31:06.203Z,75.79
2019-05-29T03:32:13.370Z,75.90
2019-05-29T03:33:07.177Z,75.69
2019-05-29T03:34:06.184Z,75.79
2019-05-29T03:35:06.166Z,75.49
2019-05-29T03:36:06.162Z,74.77
2019-05-29T03:37:06.134Z,75.66
2019-05-29T03:38:06.133Z,75.08
2019-05-29T03:39:06.114Z,75.49
2019-05-29T03:40:06.118Z,75.28
2019-05-29T03:41:06.091Z,75.18
2019-05-29T03:42:06.079Z,75.79
2019-05-29T03:43:06.070Z,75.38
2019-05-29T03:44:10.118Z,75.69
2019-05-29T03:45:06.058Z,75.18
2019-05-29T03:46:06.084Z,75.18
2019-05-29T03:47:06.028Z,75.38
2019-05-29T03:48:06.039Z,75.59
2019-05-29T03:49:06.009Z,75.59
2019-05-29T03:50:06.001Z,74.73
2019-05-29T03:51:05.986Z,75.01
2019-05-29T03:52:05.980Z,74.84
2019-05-29T03:53:05.964Z,74.94
2019-05-29T03:54:05.953Z,74.63
2019-05-29T03:55:05.949Z,74.73
2019-05-29T03:56:06.719Z,75.04
2019-05-29T03:57:05.925Z,75.04
2019-05-29T03:58:05.906Z,75.15
2019-05-29T03:59:05.894Z,75.04
2019-05-29T04:00:05.899Z,75.45
2019-05-29T04:01:05.876Z,75.56
2019-05-29T04:02:05.861Z,75.56
2019-05-29T04:03:05.854Z,75.56
2019-05-29T04:04:05.839Z,75.24
2019-05-29T04:05:05.840Z,75.42
2019-05-29T04:06:05.819Z,75.31
2019-05-29T04:07:05.809Z,74.90
2019-05-29T04:08:05.795Z,74.80
2019-05-29T04:09:05.784Z,74.90
2019-05-29T04:10:05.789Z,75.21
2019-05-29T04:11:05.780Z,74.49
2019-05-29T04:12:05.756Z,74.70
2019-05-29T04:13:05.741Z,74.80
2019-05-29T04:14:05.729Z,75.21
2019-05-29T04:15:05.728Z,74.60
2019-05-29T04:16:05.710Z,74.49
2019-05-29T04:17:05.697Z,74.56
2019-05-29T04:18:05.684Z,74.49
2019-05-29T04:19:05.675Z,73.54
2019-05-29T04:20:05.675Z,74.77
2019-05-29T04:21:05.652Z,74.77
2019-05-29T04:22:05.641Z,74.77
2019-05-29T04:23:05.634Z,75.07
2019-05-29T04:24:05.619Z,74.15
2019-05-29T04:25:05.616Z,74.26
2019-05-29T04:26:05.616Z,74.15
2019-05-29T04:27:05.585Z,73.44
2019-05-29T04:28:05.574Z,73.74
2019-05-29T04:29:05.565Z,74.15
2019-05-29T04:30:05.588Z,73.54
2019-05-29T04:31:05.543Z,73.95
2019-05-29T04:32:05.534Z,74.77
2019-05-29T04:33:05.520Z,74.15
2019-05-29T04:34:05.512Z,74.11
2019-05-29T04:35:05.497Z,74.05
2019-05-29T04:36:05.501Z,74.73
2019-05-29T04:37:07.402Z,73.91
2019-05-29T04:38:05.471Z,74.11
2019-05-29T04:39:05.460Z,73.61
2019-05-29T04:40:05.443Z,73.61
2019-05-29T04:41:05.450Z,73.81
2019-05-29T04:42:05.422Z,73.50
2019-05-29T04:43:05.410Z,73.71
2019-05-29T04:44:05.399Z,73.40
2019-05-29T04:45:05.402Z,73.40
2019-05-29T04:46:05.383Z,73.36
2019-05-29T04:47:11.171Z,73.47
2019-05-29T04:48:06.354Z,73.47
2019-05-29T04:49:05.354Z,74.02
2019-05-29T04:50:05.334Z,73.36
2019-05-29T04:51:05.331Z,72.55
2019-05-29T04:52:05.313Z,72.86
2019-05-29T04:53:05.315Z,71.94
2019-05-29T04:54:05.293Z,73.27
2019-05-29T04:55:05.278Z,72.65
2019-05-29T04:56:05.277Z,72.45
2019-05-29T04:57:05.259Z,72.34
2019-05-29T04:58:05.251Z,72.52
2019-05-29T04:59:05.234Z,72.45
2019-05-29T05:00:05.225Z,72.55
2019-05-29T05:01:05.225Z,72.00
2019-05-29T05:02:05.205Z,72.21
2019-05-29T05:03:05.192Z,72.21
2019-05-29T05:04:05.180Z,72.31
2019-05-29T05:05:05.171Z,72.52
2019-05-29T05:06:05.167Z,71.90
2019-05-29T05:07:05.147Z,72.21
2019-05-29T05:08:05.136Z,72.52
2019-05-29T05:09:05.125Z,71.97
2019-05-29T05:10:05.115Z,72.00
2019-05-29T05:11:05.113Z,70.98
2019-05-29T05:12:05.092Z,71.29
2019-05-29T05:13:05.085Z,70.88
2019-05-29T05:14:05.071Z,71.05
2019-05-29T05:15:05.062Z,70.75
2019-05-29T05:16:05.059Z,70.88
2019-05-29T05:17:05.039Z,70.95
2019-05-29T05:18:05.027Z,71.15
2019-05-29T05:19:05.017Z,69.79
2019-05-29T05:20:05.015Z,70.57
2019-05-29T05:21:05.008Z,69.52
2019-05-29T05:22:04.987Z,69.93
2019-05-29T05:23:04.977Z,68.06
2019-05-29T05:24:04.966Z,66.64
2019-05-29T05:25:04.956Z,65.80
2019-05-29T05:26:04.954Z,64.44
2019-05-29T05:27:04.930Z,63.93
2019-05-29T05:28:04.919Z,64.00
2019-05-29T05:29:04.908Z,62.52
2019-05-29T05:30:04.897Z,59.39
2019-05-29T05:31:04.897Z,58.59
2019-05-29T05:32:04.876Z,56.89
2019-05-29T05:33:04.864Z,56.05
2019-05-29T05:34:04.855Z,55.11
2019-05-29T05:35:04.849Z,53.83
2019-05-29T05:36:04.843Z,51.66
2019-05-29T05:37:04.825Z,50.52
2019-05-29T05:38:04.813Z,49.01
2019-05-29T05:39:04.799Z,49.94
2019-05-29T05:40:04.790Z,49.99
2019-05-29T05:41:04.812Z,48.99
2019-05-29T05:42:04.771Z,48.06
2019-05-29T05:43:04.762Z,48.26
2019-05-29T05:44:04.750Z,47.96
2019-05-29T05:45:04.736Z,47.51
2019-05-29T05:46:04.726Z,47.51
2019-05-29T05:47:04.722Z,46.88
2019-05-29T05:48:04.706Z,46.20
2019-05-29T05:49:04.695Z,46.33
2019-05-29T05:50:04.692Z,45.82
2019-05-29T05:51:04.674Z,44.92
2019-05-29T05:52:04.670Z,45.57
2019-05-29T05:53:04.649Z,43.46
2019-05-29T05:54:04.643Z,43.87
2019-05-29T05:55:04.629Z,43.64
2019-05-29T05:56:04.617Z,43.12
2019-05-29T05:57:04.616Z,42.40
2019-05-29T05:58:04.605Z,43.72
2019-05-29T05:59:04.588Z,43.84
2019-05-29T06:00:04.574Z,43.30
2019-05-29T06:01:04.566Z,43.08
2019-05-29T06:02:04.565Z,41.35
2019-05-29T06:03:04.545Z,41.65
2019-05-29T06:04:04.534Z,42.21
2019-05-29T06:05:04.528Z,41.49
2019-05-29T06:06:04.513Z,40.59
2019-05-29T06:07:04.511Z,39.69
2019-05-29T06:08:04.495Z,42.25
2019-05-29T06:09:04.482Z,43.92
2019-05-29T06:10:04.471Z,43.84
2019-05-29T06:11:04.461Z,44.69
2019-05-29T06:12:04.460Z,45.21
2019-05-29T06:13:04.441Z,45.16
2019-05-29T06:14:04.430Z,45.40
2019-05-29T06:15:04.419Z,46.76
2019-05-29T06:16:04.407Z,47.13
2019-05-29T06:17:04.408Z,48.06
2019-05-29T06:18:19.973Z,49.11
2019-05-29T06:19:05.374Z,49.62
2019-05-29T06:20:04.365Z,50.66
2019-05-29T06:21:04.381Z,49.69
2019-05-29T06:22:04.353Z,50.96
2019-05-29T06:23:04.334Z,52.56
2019-05-29T06:24:04.323Z,50.76
2019-05-29T06:25:04.327Z,52.79
2019-05-29T06:26:04.302Z,53.60
2019-05-29T06:27:04.298Z,53.70
2019-05-29T06:28:04.299Z,53.09
2019-05-29T06:29:04.275Z,52.38
2019-05-29T06:30:04.264Z,52.97
2019-05-29T06:31:04.252Z,51.65
2019-05-29T06:32:04.270Z,51.12
2019-05-29T06:33:04.226Z,51.12
2019-05-29T06:34:04.215Z,50.96
2019-05-29T06:35:04.207Z,51.67
2019-05-29T06:36:04.198Z,50.46
2019-05-29T06:37:04.193Z,50.63
2019-05-29T06:38:04.171Z,48.10
2019-05-29T06:39:04.160Z,46.41
2019-05-29T06:40:04.150Z,45.74
2019-05-29T06:41:04.139Z,45.37
2019-05-29T06:42:04.138Z,42.92
2019-05-29T06:43:04.118Z,41.87
2019-05-29T06:44:04.111Z,41.17
2019-05-29T06:45:04.427Z,40.57
2019-05-29T06:46:04.084Z,39.62
2019-05-29T06:47:04.084Z,39.98
2019-05-29T06:48:04.072Z,41.69
2019-05-29T06:49:04.059Z,39.86
2019-05-29T06:50:04.042Z,39.04
2019-05-29T06:51:04.031Z,38.72
2019-05-29T06:52:04.029Z,38.90
2019-05-29T06:53:04.009Z,39.18
2019-05-29T06:54:04.002Z,40.29
2019-05-29T06:55:03.987Z,38.31
2019-05-29T06:56:04.093Z,39.40
2019-05-29T06:57:03.977Z,38.92
2019-05-29T06:58:03.957Z,41.37
2019-05-29T06:59:03.946Z,39.88
2019-05-29T07:00:03.942Z,41.11
2019-05-29T07:01:03.924Z,41.33
2019-05-29T07:02:03.946Z,41.53
2019-05-29T07:03:03.905Z,43.04
2019-05-29T07:04:12.044Z,41.03
2019-05-29T07:05:04.879Z,41.31
2019-05-29T07:06:03.907Z,41.43
2019-05-29T07:07:03.858Z,41.73
2019-05-29T07:08:18.098Z,41.23
2019-05-29T07:09:04.838Z,41.75
2019-05-29T07:10:03.826Z,42.64
2019-05-29T07:11:03.822Z,39.43
2019-05-29T07:12:03.962Z,40.58
2019-05-29T07:13:03.802Z,41.31
2019-05-29T07:14:03.785Z,42.94
2019-05-29T07:15:03.773Z,42.47
2019-05-29T07:16:03.761Z,42.40
2019-05-29T07:17:03.771Z,44.03
2019-05-29T07:18:03.746Z,43.14
2019-05-29T07:19:26.610Z,43.85
2019-05-29T07:20:04.721Z,44.46
2019-05-29T07:21:03.709Z,42.61
2019-05-29T07:22:03.699Z,42.72
2019-05-29T07:23:03.701Z,43.20
2019-05-29T07:24:03.677Z,41.89
2019-05-29T07:25:03.669Z,41.77
2019-05-29T07:26:03.653Z,42.68
2019-05-29T07:27:03.646Z,42.25
2019-05-29T07:28:03.640Z,40.86
2019-05-29T07:29:08.463Z,44.34
2019-05-29T07:30:04.609Z,43.63
2019-05-29T07:31:04.072Z,44.23
2019-05-29T07:32:03.591Z,43.91
2019-05-29T07:33:03.594Z,43.60
2019-05-29T07:34:03.566Z,44.19
2019-05-29T07:35:04.649Z,43.06
2019-05-29T07:36:03.546Z,43.97
2019-05-29T07:37:03.545Z,41.22
2019-05-29T07:38:03.539Z,43.24
2019-05-29T07:39:03.980Z,42.24
2019-05-29T07:40:03.502Z,41.73
2019-05-29T07:41:03.489Z,41.41
2019-05-29T07:42:03.480Z,39.79
2019-05-29T07:43:03.477Z,41.71
2019-05-29T07:44:03.456Z,41.65
2019-05-29T07:45:03.471Z,43.00
2019-05-29T07:46:03.440Z,44.29
2019-05-29T07:47:03.424Z,43.16
2019-05-29T07:48:03.426Z,43.87
2019-05-29T07:49:03.422Z,42.55
2019-05-29T07:50:03.400Z,42.24
2019-05-29T07:51:06.900Z,41.95
2019-05-29T07:52:03.387Z,41.71
2019-05-29T07:53:03.370Z,42.33
2019-05-29T07:54:03.346Z,44.03
2019-05-29T07:55:03.338Z,44.82
2019-05-29T07:56:03.333Z,45.79
2019-05-29T07:57:03.315Z,43.77
2019-05-29T07:58:03.317Z,43.95
2019-05-29T07:59:03.782Z,43.24
2019-05-29T08:00:03.286Z,45.47
2019-05-29T08:01:12.869Z,44.94
2019-05-29T08:02:04.267Z,44.31
2019-05-29T08:03:03.262Z,43.18
2019-05-29T08:04:03.241Z,45.78
2019-05-29T08:05:03.241Z,44.07
2019-05-29T08:06:03.317Z,43.04
2019-05-29T08:07:03.207Z,41.93
2019-05-29T08:08:03.208Z,41.13
2019-05-29T08:09:03.184Z,43.46
2019-05-29T08:10:03.185Z,43.37
2019-05-29T08:11:03.165Z,43.08
2019-05-29T08:12:03.155Z,43.40
2019-05-29T08:13:03.171Z,43.43
2019-05-29T08:14:03.132Z,43.34
2019-05-29T08:15:03.128Z,44.13
2019-05-29T08:16:03.480Z,43.93
2019-05-29T08:17:03.100Z,44.25
2019-05-29T08:18:03.114Z,42.94
2019-05-29T08:19:03.077Z,42.43
2019-05-29T08:20:07.392Z,43.52
2019-05-29T08:21:03.055Z,43.30
2019-05-29T08:22:03.050Z,45.30
2019-05-29T08:23:03.033Z,44.19
2019-05-29T08:24:03.030Z,42.88
2019-05-29T08:25:03.019Z,43.08
2019-05-29T08:26:03.007Z,43.20
2019-05-29T08:27:02.990Z,43.10
2019-05-29T08:28:02.978Z,43.71
2019-05-29T08:29:02.977Z,43.20
2019-05-29T08:30:02.985Z,43.46
2019-05-29T08:31:02.951Z,42.05
2019-05-29T08:32:02.937Z,39.61
2019-05-29T08:33:02.923Z,41.42
2019-05-29T08:34:02.926Z,39.39
2019-05-29T08:35:02.909Z,41.31
2019-05-29T08:36:02.892Z,40.69
2019-05-29T08:37:07.181Z,41.61
2019-05-29T08:38:02.873Z,41.20
2019-05-29T08:39:02.866Z,41.63
2019-05-29T08:40:02.849Z,40.42
2019-05-29T08:41:05.827Z,41.75
2019-05-29T08:42:21.927Z,40.78
2019-05-29T08:43:03.816Z,42.52
2019-05-29T08:44:02.813Z,43.83
2019-05-29T08:45:02.794Z,42.41
2019-05-29T08:46:02.784Z,43.32
2019-05-29T08:47:10.238Z,45.57
2019-05-29T08:48:03.761Z,44.17
2019-05-29T08:49:02.885Z,43.87
2019-05-29T08:50:17.407Z,44.37
2019-05-29T08:51:03.726Z,44.70
2019-05-29T08:52:11.564Z,45.31
2019-05-29T08:53:03.706Z,45.20
2019-05-29T08:54:02.705Z,45.77
2019-05-29T08:55:02.687Z,42.82
2019-05-29T08:56:02.770Z,44.03
2019-05-29T08:57:02.670Z,45.14
2019-05-29T08:58:02.654Z,43.63
2019-05-29T08:59:02.652Z,43.23
2019-05-29T09:00:02.630Z,43.43
2019-05-29T09:01:02.621Z,42.41
2019-05-29T09:02:02.617Z,44.35
2019-05-29T09:03:02.598Z,45.47
2019-05-29T09:04:02.597Z,43.46
2019-05-29T09:05:03.081Z,44.27
2019-05-29T09:06:08.919Z,44.20
2019-05-29T09:07:03.557Z,44.03
2019-05-29T09:08:02.552Z,44.13
2019-05-29T09:09:02.556Z,43.83
2019-05-29T09:10:02.532Z,44.21
2019-05-29T09:11:02.524Z,44.49
2019-05-29T09:12:02.511Z,44.27
2019-05-29T09:13:05.064Z,43.44
2019-05-29T09:14:02.488Z,42.70
2019-05-29T09:15:02.555Z,44.11
2019-05-29T09:16:02.456Z,41.97
2019-05-29T09:17:02.445Z,41.67
2019-05-29T09:18:02.434Z,41.73
2019-05-29T09:19:02.436Z,39.53
2019-05-29T09:20:02.419Z,39.04
2019-05-29T09:21:03.929Z,42.27
2019-05-29T09:22:02.394Z,43.04
2019-05-29T09:23:02.380Z,43.73
2019-05-29T09:24:02.383Z,39.39
2019-05-29T09:25:02.359Z,39.72
2019-05-29T09:26:14.127Z,40.34
2019-05-29T09:27:03.344Z,41.77
2019-05-29T09:28:02.390Z,42.66
2019-05-29T09:29:02.361Z,40.56
2019-05-29T09:30:02.311Z,41.83
2019-05-29T09:31:02.294Z,43.75
2019-05-29T09:32:02.284Z,43.65
2019-05-29T09:33:02.278Z,43.04
2019-05-29T09:34:02.262Z,43.85
2019-05-29T09:35:02.263Z,41.73
2019-05-29T09:36:02.246Z,42.94
2019-05-29T09:37:02.294Z,41.75
2019-05-29T09:38:02.218Z,43.87
2019-05-29T09:39:02.207Z,43.44
2019-05-29T09:40:02.208Z,43.32
2019-05-29T09:41:02.184Z,43.38
2019-05-29T09:42:02.179Z,43.26
2019-05-29T09:43:02.166Z,39.61
2019-05-29T09:44:02.156Z,40.70
2019-05-29T09:45:02.158Z,39.33
2019-05-29T09:46:02.450Z,39.67
2019-05-29T09:47:02.125Z,41.79
2019-05-29T09:48:02.437Z,41.47
2019-05-29T09:49:02.177Z,42.64
2019-05-29T09:50:02.097Z,43.62
2019-05-29T09:51:20.216Z,43.40
2019-05-29T09:52:04.064Z,39.86
2019-05-29T09:53:03.760Z,39.03
2019-05-29T09:54:03.477Z,39.42
2019-05-29T09:55:02.558Z,37.71
2019-05-29T09:56:03.016Z,38.73
2019-05-29T09:57:02.819Z,36.80
2019-05-29T09:58:02.729Z,38.01
2019-05-29T09:59:03.758Z,39.03
2019-05-29T10:00:02.662Z,39.65
2019-05-29T10:01:19.867Z,39.54
2019-05-29T10:02:05.958Z,39.72
2019-05-29T10:03:03.908Z,38.70
2019-05-29T10:04:05.824Z,37.89
2019-05-29T10:05:02.923Z,39.18
2019-05-29T10:06:01.914Z,37.79
2019-05-29T10:07:02.279Z,37.02
2019-05-29T10:08:02.401Z,39.90
2019-05-29T10:09:01.913Z,39.43
2019-05-29T10:10:03.691Z,41.75
2019-05-29T10:11:08.451Z,40.54
2019-05-29T10:12:06.377Z,39.97
2019-05-29T10:13:02.820Z,40.84
2019-05-29T10:14:02.781Z,43.00
2019-05-29T10:15:02.688Z,43.63
2019-05-29T10:16:02.850Z,45.55
2019-05-29T10:17:07.440Z,43.61
2019-05-29T10:18:06.860Z,42.55
2019-05-29T10:19:03.254Z,43.52
2019-05-29T10:20:03.187Z,40.96
2019-05-29T10:21:03.151Z,42.15
2019-05-29T10:22:03.615Z,41.53
2019-05-29T10:23:03.049Z,41.33
2019-05-29T10:24:02.314Z,40.40
2019-05-29T10:25:02.020Z,40.38
2019-05-29T10:26:02.829Z,41.29
2019-05-29T10:27:03.495Z,39.98
2019-05-29T10:28:05.157Z,40.16
2019-05-29T10:29:08.274Z,39.65
2019-05-29T10:30:02.667Z,40.64
2019-05-29T10:31:03.773Z,39.84
2019-05-29T10:32:01.636Z,39.52
2019-05-29T10:33:01.623Z,37.93
2019-05-29T10:34:01.608Z,39.23
2019-05-29T10:35:01.622Z,39.42
2019-05-29T10:36:03.983Z,40.20
2019-05-29T10:37:01.576Z,39.50
2019-05-29T10:38:01.565Z,38.18
2019-05-29T10:39:01.671Z,38.58
2019-05-29T10:40:01.553Z,38.11
2019-05-29T10:41:06.601Z,37.91
2019-05-29T10:42:02.524Z,37.02
2019-05-29T10:43:01.511Z,38.15
2019-05-29T10:44:01.499Z,39.76
2019-05-29T10:45:01.494Z,38.05
2019-05-29T10:46:01.490Z,37.95
2019-05-29T10:47:01.476Z,38.69
2019-05-29T10:48:01.457Z,39.63
2019-05-29T10:49:04.603Z,40.37
2019-05-29T10:50:01.566Z,42.03
2019-05-29T10:51:01.433Z,42.23
2019-05-29T10:52:14.501Z,41.42
2019-05-29T10:53:02.407Z,42.74
2019-05-29T10:54:01.436Z,42.11
2019-05-29T10:55:01.381Z,42.49
2019-05-29T10:56:01.377Z,40.25
2019-05-29T10:57:01.360Z,39.75
2019-05-29T10:58:01.349Z,39.23
2019-05-29T10:59:01.338Z,40.23
2019-05-29T11:00:01.327Z,39.51
2019-05-29T11:01:01.325Z,40.30
2019-05-29T11:02:01.303Z,39.50
2019-05-29T11:03:01.295Z,40.10
2019-05-29T11:04:01.282Z,40.10
2019-05-29T11:05:01.280Z,39.21
2019-05-29T11:06:01.267Z,40.94
2019-05-29T11:07:01.250Z,41.47
2019-05-29T11:08:01.242Z,42.76
2019-05-29T11:09:01.228Z,41.83
2019-05-29T11:10:01.217Z,39.21
2019-05-29T11:11:01.213Z,38.64
2019-05-29T11:12:01.194Z,41.06
2019-05-29T11:13:01.187Z,40.25
2019-05-29T11:14:01.179Z,40.16
2019-05-29T11:15:01.177Z,40.14
2019-05-29T11:16:01.163Z,39.79
2019-05-29T11:17:01.141Z,40.08
2019-05-29T11:18:01.133Z,41.57
2019-05-29T11:19:01.121Z,39.03
2019-05-29T11:20:01.152Z,37.32
2019-05-29T11:21:01.104Z,40.44
2019-05-29T11:22:22.552Z,40.22
2019-05-29T11:23:02.078Z,40.00
2019-05-29T11:24:01.064Z,38.28
2019-05-29T11:25:21.137Z,36.90
2019-05-29T11:26:02.052Z,38.42
2019-05-29T11:27:01.032Z,39.54
2019-05-29T11:28:01.021Z,38.43
2019-05-29T11:29:01.015Z,39.17
2019-05-29T11:30:01.004Z,39.17
2019-05-29T11:31:06.023Z,39.37
2019-05-29T11:32:01.982Z,39.48
2019-05-29T11:33:01.486Z,40.18
2019-05-29T11:34:00.960Z,37.98
2019-05-29T11:35:02.250Z,39.70
2019-05-29T11:36:12.415Z,39.79
2019-05-29T11:37:02.470Z,37.78
2019-05-29T11:38:00.916Z,39.50
2019-05-29T11:39:05.590Z,39.72
2019-05-29T11:40:03.235Z,37.82
2019-05-29T11:41:23.613Z,39.35
2019-05-29T11:42:03.025Z,38.37
2019-05-29T11:43:00.857Z,39.70
2019-05-29T11:44:00.845Z,40.52
2019-05-29T11:45:00.837Z,41.41
2019-05-29T11:46:01.962Z,41.69
2019-05-29T11:47:02.388Z,39.75
2019-05-29T11:48:01.628Z,40.03
2019-05-29T11:49:00.791Z,40.23
2019-05-29T11:50:15.400Z,39.53
2019-05-29T11:51:02.461Z,37.90
2019-05-29T11:52:21.697Z,39.79
2019-05-29T11:53:02.671Z,38.97
2019-05-29T11:54:02.340Z,39.36
2019-05-29T11:55:04.518Z,40.24
2019-05-29T11:56:02.154Z,38.31
2019-05-29T11:57:00.711Z,38.11
2019-05-29T11:58:01.946Z,39.34
2019-05-29T11:59:00.684Z,37.74
2019-05-29T12:00:09.564Z,38.25
2019-05-29T12:01:01.659Z,39.28
2019-05-29T12:02:03.192Z,39.88
2019-05-29T12:03:01.691Z,40.28
2019-05-29T12:04:24.115Z,39.17
2019-05-29T12:05:03.846Z,40.58
2019-05-29T12:06:03.083Z,39.05
2019-05-29T12:07:01.586Z,38.27
2019-05-29T12:08:01.852Z,38.27
2019-05-29T12:09:01.863Z,37.76
2019-05-29T12:10:04.255Z,38.28
2019-05-29T12:11:01.573Z,39.01
2019-05-29T12:12:02.030Z,39.73
2019-05-29T12:13:01.721Z,39.95
2019-05-29T12:14:02.263Z,39.04
2019-05-29T12:15:10.906Z,39.75
2019-05-29T12:16:01.866Z,40.76
2019-05-29T12:17:00.748Z,39.75
2019-05-29T12:18:19.959Z,40.25
2019-05-29T12:19:01.912Z,39.15
2019-05-29T12:20:02.378Z,41.25
2019-05-29T12:21:01.626Z,41.47
2019-05-29T12:22:00.605Z,39.83
2019-05-29T12:23:22.924Z,39.43
2019-05-29T12:24:02.330Z,39.92
2019-05-29T12:25:00.722Z,42.01
2019-05-29T12:26:20.092Z,38.17
2019-05-29T12:27:02.589Z,39.79
2019-05-29T12:28:01.321Z,39.21
2019-05-29T12:29:07.340Z,39.61
2019-05-29T12:30:01.352Z,39.51
2019-05-29T12:31:01.534Z,39.70
2019-05-29T12:32:02.324Z,38.37
2019-05-29T12:33:01.157Z,37.56
2019-05-29T12:34:13.162Z,39.15
2019-05-29T12:35:01.289Z,36.15
2019-05-29T12:36:01.279Z,38.45
2019-05-29T12:37:01.755Z,38.55
2019-05-29T12:38:01.483Z,38.64
2019-05-29T12:39:02.047Z,38.13
2019-05-29T12:40:01.739Z,39.34
2019-05-29T12:41:01.673Z,38.01
2019-05-29T12:42:01.636Z,39.22
2019-05-29T12:43:00.628Z,39.40
2019-05-29T12:44:01.531Z,37.47
2019-05-29T12:45:01.868Z,35.57
2019-05-29T12:46:01.440Z,36.08
2019-05-29T12:47:01.804Z,38.11
2019-05-29T12:48:00.149Z,37.52
2019-05-29T12:49:00.145Z,37.43
2019-05-29T12:50:00.553Z,38.07
2019-05-29T12:51:00.365Z,39.28
2019-05-29T12:52:00.122Z,39.98